sensor_id;sensor_type;location;lat;lon;timestamp;pressure;altitude;pressure_sealevel;temperature;humidity
18137;BME280;9194;42.632;23.298;2022-10-16T00:04:54;93191.59;;;8.67;100.00
18137;BME280;9194;42.632;23.298;2022-10-16T00:09:55;93196.75;;;8.60;100.00
18137;BME280;9194;42.632;23.298;2022-10-16T00:14:57;93206.13;;;8.61;100.00
18137;BME280;9194;42.632;23.298;2022-10-16T00:19:58;93199.34;;;8.60;100.00
18137;BME280;9194;42.632;23.298;2022-10-16T00:25:18;93201.28;;;8.51;100.00
18137;BME280;9194;42.632;23.298;2022-10-16T00:30:19;93208.50;;;8.49;100.00
18137;BME280;9194;42.632;23.298;2022-10-16T00:35:22;93215.47;;;8.49;100.00
18137;BME280;9194;42.632;23.298;2022-10-16T00:40:25;93216.25;;;8.43;100.00
18137;BME280;9194;42.632;23.298;2022-10-16T00:45:28;93219.03;;;8.41;100.00
18137;BME280;9194;42.632;23.298;2022-10-16T00:50:32;93207.56;;;8.29;100.00
18137;BME280;9194;42.632;23.298;2022-10-16T00:55:34;93202.84;;;8.39;100.00
18137;BME280;9194;42.632;23.298;2022-10-16T01:00:35;93208.44;;;8.36;100.00
18137;BME280;9194;42.632;23.298;2022-10-16T01:05:47;93221.13;;;8.24;100.00
18137;BME280;9194;42.632;23.298;2022-10-16T01:16:05;93232.66;;;8.22;100.00
18137;BME280;9194;42.632;23.298;2022-10-16T01:31:33;93204.94;;;8.22;100.00
18137;BME280;9194;42.632;23.298;2022-10-16T01:36:39;93202.34;;;8.22;100.00
18137;BME280;9194;42.632;23.298;2022-10-16T01:41:49;93201.97;;;8.25;100.00
18137;BME280;9194;42.632;23.298;2022-10-16T01:46:53;93207.91;;;8.19;100.00
18137;BME280;9194;42.632;23.298;2022-10-16T01:51:59;93214.72;;;8.27;100.00
18137;BME280;9194;42.632;23.298;2022-10-16T01:57:01;93222.69;;;8.19;100.00
18137;BME280;9194;42.632;23.298;2022-10-16T02:02:08;93211.38;;;8.33;100.00
18137;BME280;9194;42.632;23.298;2022-10-16T02:07:11;93217.59;;;8.39;100.00
18137;BME280;9194;42.632;23.298;2022-10-16T02:12:23;93225.38;;;8.32;100.00
18137;BME280;9194;42.632;23.298;2022-10-16T02:17:26;93237.88;;;8.29;100.00
18137;BME280;9194;42.632;23.298;2022-10-16T02:22:32;93240.53;;;8.35;100.00
18137;BME280;9194;42.632;23.298;2022-10-16T02:32:39;93245.66;;;8.29;100.00
18137;BME280;9194;42.632;23.298;2022-10-16T02:37:43;93237.72;;;8.30;100.00
18137;BME280;9194;42.632;23.298;2022-10-16T02:42:50;93247.25;;;8.30;100.00
18137;BME280;9194;42.632;23.298;2022-10-16T02:47:52;93243.72;;;8.31;100.00
18137;BME280;9194;42.632;23.298;2022-10-16T02:52:54;93246.47;;;8.29;100.00
18137;BME280;9194;42.632;23.298;2022-10-16T02:57:55;93246.03;;;8.19;100.00
18137;BME280;9194;42.632;23.298;2022-10-16T03:02:56;93255.94;;;8.09;100.00
18137;BME280;9194;42.632;23.298;2022-10-16T03:07:57;93250.31;;;8.05;100.00
18137;BME280;9194;42.632;23.298;2022-10-16T03:13:01;93254.28;;;8.01;100.00
18137;BME280;9194;42.632;23.298;2022-10-16T03:18:02;93262.25;;;8.00;100.00
18137;BME280;9194;42.632;23.298;2022-10-16T03:23:04;93271.59;;;7.94;100.00
18137;BME280;9194;42.632;23.298;2022-10-16T03:28:05;93267.38;;;7.93;100.00
18137;BME280;9194;42.632;23.298;2022-10-16T03:33:07;93263.75;;;7.88;100.00
18137;BME280;9194;42.632;23.298;2022-10-16T03:38:08;93273.72;;;7.84;100.00
18137;BME280;9194;42.632;23.298;2022-10-16T03:43:09;93273.03;;;7.75;100.00
18137;BME280;9194;42.632;23.298;2022-10-16T03:48:11;93276.19;;;7.71;100.00
18137;BME280;9194;42.632;23.298;2022-10-16T03:53:14;93258.84;;;7.71;100.00
18137;BME280;9194;42.632;23.298;2022-10-16T03:58:16;93258.06;;;7.71;100.00
18137;BME280;9194;42.632;23.298;2022-10-16T04:03:17;93259.25;;;7.68;100.00
18137;BME280;9194;42.632;23.298;2022-10-16T04:08:23;93252.41;;;7.61;100.00
18137;BME280;9194;42.632;23.298;2022-10-16T04:13:24;93260.00;;;7.62;100.00
18137;BME280;9194;42.632;23.298;2022-10-16T04:18:25;93264.22;;;7.70;100.00
18137;BME280;9194;42.632;23.298;2022-10-16T04:23:28;93257.41;;;7.62;100.00
18137;BME280;9194;42.632;23.298;2022-10-16T04:28:29;93262.81;;;7.67;100.00
18137;BME280;9194;42.632;23.298;2022-10-16T04:33:30;93277.75;;;7.65;100.00
18137;BME280;9194;42.632;23.298;2022-10-16T04:38:31;93273.38;;;7.66;100.00
18137;BME280;9194;42.632;23.298;2022-10-16T04:43:33;93278.38;;;7.67;100.00
18137;BME280;9194;42.632;23.298;2022-10-16T04:48:35;93285.63;;;7.78;100.00
18137;BME280;9194;42.632;23.298;2022-10-16T04:53:36;93286.03;;;7.82;100.00
18137;BME280;9194;42.632;23.298;2022-10-16T04:58:38;93299.19;;;7.80;100.00
18137;BME280;9194;42.632;23.298;2022-10-16T05:03:40;93300.19;;;7.79;100.00
18137;BME280;9194;42.632;23.298;2022-10-16T05:08:41;93300.44;;;7.84;100.00
18137;BME280;9194;42.632;23.298;2022-10-16T05:13:42;93308.84;;;7.93;100.00
18137;BME280;9194;42.632;23.298;2022-10-16T05:18:43;93307.34;;;8.05;100.00
18137;BME280;9194;42.632;23.298;2022-10-16T05:23:44;93310.28;;;8.23;100.00
18137;BME280;9194;42.632;23.298;2022-10-16T05:28:46;93308.38;;;8.39;100.00
18137;BME280;9194;42.632;23.298;2022-10-16T05:33:47;93304.94;;;8.59;100.00
18137;BME280;9194;42.632;23.298;2022-10-16T05:38:50;93306.22;;;8.77;100.00
18137;BME280;9194;42.632;23.298;2022-10-16T05:43:52;93312.84;;;8.92;100.00
18137;BME280;9194;42.632;23.298;2022-10-16T05:48:54;93319.13;;;9.11;100.00
18137;BME280;9194;42.632;23.298;2022-10-16T05:53:55;93322.13;;;9.21;100.00
18137;BME280;9194;42.632;23.298;2022-10-16T05:58:57;93334.78;;;9.31;100.00
18137;BME280;9194;42.632;23.298;2022-10-16T06:03:58;93338.41;;;9.49;100.00
18137;BME280;9194;42.632;23.298;2022-10-16T06:09:00;93344.25;;;9.65;100.00
18137;BME280;9194;42.632;23.298;2022-10-16T06:14:02;93346.88;;;9.78;100.00
18137;BME280;9194;42.632;23.298;2022-10-16T06:19:07;93354.66;;;9.84;100.00
18137;BME280;9194;42.632;23.298;2022-10-16T06:24:09;93362.28;;;9.99;100.00
18137;BME280;9194;42.632;23.298;2022-10-16T06:29:10;93358.91;;;10.12;100.00
18137;BME280;9194;42.632;23.298;2022-10-16T06:34:12;93358.50;;;10.28;100.00
18137;BME280;9194;42.632;23.298;2022-10-16T06:39:13;93369.69;;;10.55;100.00
18137;BME280;9194;42.632;23.298;2022-10-16T06:44:14;93364.03;;;10.84;100.00
18137;BME280;9194;42.632;23.298;2022-10-16T06:49:16;93373.22;;;11.00;100.00
18137;BME280;9194;42.632;23.298;2022-10-16T06:54:22;93385.22;;;11.07;100.00
18137;BME280;9194;42.632;23.298;2022-10-16T06:59:23;93390.81;;;11.18;99.71
18137;BME280;9194;42.632;23.298;2022-10-16T07:04:25;93401.16;;;11.31;98.10
18137;BME280;9194;42.632;23.298;2022-10-16T07:09:26;93397.34;;;11.40;98.66
18137;BME280;9194;42.632;23.298;2022-10-16T07:14:27;93396.38;;;11.34;98.71
18137;BME280;9194;42.632;23.298;2022-10-16T07:19:28;93403.88;;;11.56;95.21
18137;BME280;9194;42.632;23.298;2022-10-16T07:24:30;93407.91;;;11.58;94.83
18137;BME280;9194;42.632;23.298;2022-10-16T07:29:31;93412.84;;;11.66;93.14
18137;BME280;9194;42.632;23.298;2022-10-16T07:34:33;93412.81;;;11.73;92.83
18137;BME280;9194;42.632;23.298;2022-10-16T07:39:34;93411.41;;;11.83;92.64
18137;BME280;9194;42.632;23.298;2022-10-16T07:44:36;93404.50;;;11.96;90.72
18137;BME280;9194;42.632;23.298;2022-10-16T07:49:37;93408.81;;;12.15;89.94
18137;BME280;9194;42.632;23.298;2022-10-16T07:54:38;93413.19;;;12.21;89.95
18137;BME280;9194;42.632;23.298;2022-10-16T07:59:39;93417.63;;;12.45;88.74
18137;BME280;9194;42.632;23.298;2022-10-16T08:04:41;93413.88;;;12.59;85.81
18137;BME280;9194;42.632;23.298;2022-10-16T08:09:42;93424.81;;;12.74;84.33
18137;BME280;9194;42.632;23.298;2022-10-16T08:14:43;93420.63;;;12.73;82.18
18137;BME280;9194;42.632;23.298;2022-10-16T08:19:46;93422.41;;;12.98;82.18
18137;BME280;9194;42.632;23.298;2022-10-16T08:24:49;93426.31;;;13.07;81.47
18137;BME280;9194;42.632;23.298;2022-10-16T08:29:50;93426.44;;;13.19;79.76
18137;BME280;9194;42.632;23.298;2022-10-16T08:34:52;93410.69;;;13.25;79.89
18137;BME280;9194;42.632;23.298;2022-10-16T08:39:54;93418.31;;;13.45;79.53
18137;BME280;9194;42.632;23.298;2022-10-16T08:50:25;93414.97;;;13.74;73.07
18137;BME280;9194;42.632;23.298;2022-10-16T08:55:43;93426.13;;;13.81;70.84
18137;BME280;9194;42.632;23.298;2022-10-16T09:00:52;93431.47;;;13.86;66.96
18137;BME280;9194;42.632;23.298;2022-10-16T09:17:22;93425.00;;;14.37;63.51
18137;BME280;9194;42.632;23.298;2022-10-16T09:22:27;93423.19;;;14.49;62.99
18137;BME280;9194;42.632;23.298;2022-10-16T09:27:30;93430.97;;;14.56;60.23
18137;BME280;9194;42.632;23.298;2022-10-16T09:32:32;93422.66;;;14.59;59.72
18137;BME280;9194;42.632;23.298;2022-10-16T09:37:35;93426.06;;;14.71;60.29
18137;BME280;9194;42.632;23.298;2022-10-16T09:42:36;93419.72;;;14.90;58.31
18137;BME280;9194;42.632;23.298;2022-10-16T09:47:41;93410.38;;;14.94;57.66
18137;BME280;9194;42.632;23.298;2022-10-16T09:52:43;93408.06;;;15.09;57.20
18137;BME280;9194;42.632;23.298;2022-10-16T09:57:55;93410.16;;;15.07;57.39
18137;BME280;9194;42.632;23.298;2022-10-16T10:02:56;93409.09;;;15.20;57.00
18137;BME280;9194;42.632;23.298;2022-10-16T10:08:03;93409.34;;;15.18;55.93
18137;BME280;9194;42.632;23.298;2022-10-16T10:13:19;93404.22;;;15.12;57.52
18137;BME280;9194;42.632;23.298;2022-10-16T10:18:22;93401.78;;;15.34;56.44
18137;BME280;9194;42.632;23.298;2022-10-16T10:23:26;93403.38;;;15.35;55.99
18137;BME280;9194;42.632;23.298;2022-10-16T10:39:30;93392.81;;;15.18;56.44
18137;BME280;9194;42.632;23.298;2022-10-16T10:45:00;93382.28;;;15.30;55.76
18137;BME280;9194;42.632;23.298;2022-10-16T10:50:14;93383.75;;;15.49;54.38
18137;BME280;9194;42.632;23.298;2022-10-16T11:01:09;93372.19;;;15.50;54.10
18137;BME280;9194;42.632;23.298;2022-10-16T11:06:51;93368.31;;;15.64;54.13
18137;BME280;9194;42.632;23.298;2022-10-16T11:12:12;93364.66;;;15.65;52.34
18137;BME280;9194;42.632;23.298;2022-10-16T11:17:21;93360.84;;;15.73;52.76
18137;BME280;9194;42.632;23.298;2022-10-16T11:28:03;93357.78;;;16.04;52.69
18137;BME280;9194;42.632;23.298;2022-10-16T11:33:27;93352.38;;;16.11;50.76
18137;BME280;9194;42.632;23.298;2022-10-16T11:49:14;93355.88;;;16.16;49.69
18137;BME280;9194;42.632;23.298;2022-10-16T11:54:20;93358.25;;;16.01;51.49
18137;BME280;9194;42.632;23.298;2022-10-16T11:59:31;93356.78;;;15.93;47.85
18137;BME280;9194;42.632;23.298;2022-10-16T12:04:51;93360.41;;;15.76;49.87
18137;BME280;9194;42.632;23.298;2022-10-16T12:09:57;93357.66;;;15.82;50.92
18137;BME280;9194;42.632;23.298;2022-10-16T12:15:24;93358.47;;;15.99;49.79
18137;BME280;9194;42.632;23.298;2022-10-16T12:20:30;93367.31;;;15.93;49.49
18137;BME280;9194;42.632;23.298;2022-10-16T12:25:37;93358.19;;;16.13;47.94
18137;BME280;9194;42.632;23.298;2022-10-16T12:30:55;93360.41;;;16.04;47.41
18137;BME280;9194;42.632;23.298;2022-10-16T12:35:59;93372.72;;;16.03;49.12
18137;BME280;9194;42.632;23.298;2022-10-16T12:41:06;93361.28;;;16.10;49.08
18137;BME280;9194;42.632;23.298;2022-10-16T13:18:05;93376.53;;;15.56;54.26
18137;BME280;9194;42.632;23.298;2022-10-16T13:23:36;93377.13;;;15.46;55.79
18137;BME280;9194;42.632;23.298;2022-10-16T13:28:40;93376.25;;;15.17;56.75
18137;BME280;9194;42.632;23.298;2022-10-16T13:33:46;93383.34;;;15.05;58.01
18137;BME280;9194;42.632;23.298;2022-10-16T13:39:00;93390.09;;;14.78;58.91
18137;BME280;9194;42.632;23.298;2022-10-16T13:44:02;93395.75;;;14.52;61.43
18137;BME280;9194;42.632;23.298;2022-10-16T13:49:10;93393.75;;;14.35;61.90
18137;BME280;9194;42.632;23.298;2022-10-16T13:54:12;93399.19;;;13.92;66.29
18137;BME280;9194;42.632;23.298;2022-10-16T13:59:33;93403.31;;;13.70;69.77
18137;BME280;9194;42.632;23.298;2022-10-16T14:04:38;93412.34;;;13.56;71.85
18137;BME280;9194;42.632;23.298;2022-10-16T14:09:40;93404.53;;;13.38;71.21
18137;BME280;9194;42.632;23.298;2022-10-16T14:14:44;93409.69;;;13.26;72.97
18137;BME280;9194;42.632;23.298;2022-10-16T14:19:47;93419.59;;;13.18;72.58
18137;BME280;9194;42.632;23.298;2022-10-16T14:24:49;93415.06;;;13.06;73.07
18137;BME280;9194;42.632;23.298;2022-10-16T14:30:22;93413.91;;;13.02;73.34
18137;BME280;9194;42.632;23.298;2022-10-16T14:40:36;93420.06;;;12.90;74.49
18137;BME280;9194;42.632;23.298;2022-10-16T14:45:38;93427.16;;;12.83;76.69
18137;BME280;9194;42.632;23.298;2022-10-16T14:50:42;93433.88;;;12.72;77.83
18137;BME280;9194;42.632;23.298;2022-10-16T14:55:44;93436.06;;;12.50;79.60
18137;BME280;9194;42.632;23.298;2022-10-16T15:00:46;93439.94;;;12.41;79.58
18137;BME280;9194;42.632;23.298;2022-10-16T15:05:48;93450.91;;;12.25;82.23
18137;BME280;9194;42.632;23.298;2022-10-16T15:10:49;93458.63;;;12.07;84.02
18137;BME280;9194;42.632;23.298;2022-10-16T15:15:52;93455.47;;;11.98;85.23
18137;BME280;9194;42.632;23.298;2022-10-16T15:20:54;93463.22;;;11.73;87.18
18137;BME280;9194;42.632;23.298;2022-10-16T15:25:55;93466.06;;;11.59;87.05
18137;BME280;9194;42.632;23.298;2022-10-16T15:30:57;93467.72;;;11.46;87.45
18137;BME280;9194;42.632;23.298;2022-10-16T15:35:58;93470.09;;;11.48;87.41
18137;BME280;9194;42.632;23.298;2022-10-16T15:41:00;93479.53;;;11.36;89.08
18137;BME280;9194;42.632;23.298;2022-10-16T15:46:04;93484.19;;;11.21;90.50
18137;BME280;9194;42.632;23.298;2022-10-16T15:51:07;93486.25;;;11.05;92.30
18137;BME280;9194;42.632;23.298;2022-10-16T15:56:10;93502.47;;;10.94;92.42
18137;BME280;9194;42.632;23.298;2022-10-16T16:01:33;93502.47;;;10.81;92.02
18137;BME280;9194;42.632;23.298;2022-10-16T16:06:35;93503.47;;;10.80;93.01
18137;BME280;9194;42.632;23.298;2022-10-16T16:11:38;93506.28;;;10.72;93.04
18137;BME280;9194;42.632;23.298;2022-10-16T16:16:39;93515.50;;;10.68;91.88
18137;BME280;9194;42.632;23.298;2022-10-16T16:21:42;93521.91;;;10.59;92.47
18137;BME280;9194;42.632;23.298;2022-10-16T16:26:43;93524.69;;;10.57;92.13
18137;BME280;9194;42.632;23.298;2022-10-16T16:31:45;93528.50;;;10.42;92.82
18137;BME280;9194;42.632;23.298;2022-10-16T16:36:48;93527.25;;;10.31;94.72
18137;BME280;9194;42.632;23.298;2022-10-16T16:41:49;93537.09;;;10.36;94.16
18137;BME280;9194;42.632;23.298;2022-10-16T16:46:51;93552.50;;;10.31;92.59
18137;BME280;9194;42.632;23.298;2022-10-16T16:51:53;93564.84;;;10.22;92.42
18137;BME280;9194;42.632;23.298;2022-10-16T16:56:55;93564.47;;;10.25;92.53
18137;BME280;9194;42.632;23.298;2022-10-16T17:01:57;93567.88;;;10.19;92.87
18137;BME280;9194;42.632;23.298;2022-10-16T17:06:58;93577.25;;;10.20;93.40
18137;BME280;9194;42.632;23.298;2022-10-16T17:11:59;93581.28;;;10.22;92.83
18137;BME280;9194;42.632;23.298;2022-10-16T17:17:01;93583.66;;;10.17;93.74
18137;BME280;9194;42.632;23.298;2022-10-16T17:22:02;93580.81;;;10.12;94.20
18137;BME280;9194;42.632;23.298;2022-10-16T17:27:03;93581.97;;;10.03;94.15
18137;BME280;9194;42.632;23.298;2022-10-16T17:32:05;93582.41;;;10.07;92.23
18137;BME280;9194;42.632;23.298;2022-10-16T17:37:06;93589.41;;;10.06;92.64
18137;BME280;9194;42.632;23.298;2022-10-16T17:42:08;93583.75;;;10.03;93.24
18137;BME280;9194;42.632;23.298;2022-10-16T17:47:09;93599.72;;;9.93;93.59
18137;BME280;9194;42.632;23.298;2022-10-16T17:52:11;93591.72;;;9.88;94.13
18137;BME280;9194;42.632;23.298;2022-10-16T17:57:14;93586.50;;;9.88;94.60
18137;BME280;9194;42.632;23.298;2022-10-16T18:02:15;93589.50;;;9.92;92.66
18137;BME280;9194;42.632;23.298;2022-10-16T18:07:18;93595.59;;;10.05;88.72
18137;BME280;9194;42.632;23.298;2022-10-16T18:12:19;93605.56;;;10.36;85.36
18137;BME280;9194;42.632;23.298;2022-10-16T18:17:20;93617.63;;;10.57;82.46
18137;BME280;9194;42.632;23.298;2022-10-16T18:22:22;93617.25;;;10.73;80.59
18137;BME280;9194;42.632;23.298;2022-10-16T18:27:23;93622.50;;;10.86;79.35
18137;BME280;9194;42.632;23.298;2022-10-16T18:32:26;93632.91;;;10.93;78.97
18137;BME280;9194;42.632;23.298;2022-10-16T18:37:27;93629.69;;;10.84;79.34
18137;BME280;9194;42.632;23.298;2022-10-16T18:42:29;93636.47;;;10.72;79.49
18137;BME280;9194;42.632;23.298;2022-10-16T18:47:31;93649.69;;;10.64;83.09
18137;BME280;9194;42.632;23.298;2022-10-16T18:52:32;93649.25;;;10.54;86.13
18137;BME280;9194;42.632;23.298;2022-10-16T18:57:33;93664.00;;;10.40;89.86
18137;BME280;9194;42.632;23.298;2022-10-16T19:02:34;93667.00;;;10.31;90.16
18137;BME280;9194;42.632;23.298;2022-10-16T19:07:36;93669.97;;;10.27;91.53
18137;BME280;9194;42.632;23.298;2022-10-16T19:12:37;93674.31;;;10.20;92.62
18137;BME280;9194;42.632;23.298;2022-10-16T19:17:38;93684.25;;;10.10;93.96
18137;BME280;9194;42.632;23.298;2022-10-16T19:22:39;93679.00;;;10.04;95.03
18137;BME280;9194;42.632;23.298;2022-10-16T19:27:54;93690.31;;;9.83;95.56
18137;BME280;9194;42.632;23.298;2022-10-16T19:32:55;93688.47;;;9.77;96.33
18137;BME280;9194;42.632;23.298;2022-10-16T19:37:57;93698.00;;;9.70;96.12
18137;BME280;9194;42.632;23.298;2022-10-16T19:42:58;93695.59;;;9.68;96.92
18137;BME280;9194;42.632;23.298;2022-10-16T19:47:59;93702.84;;;9.52;96.31
18137;BME280;9194;42.632;23.298;2022-10-16T19:53:01;93710.25;;;9.48;96.26
18137;BME280;9194;42.632;23.298;2022-10-16T19:58:02;93705.78;;;9.42;97.16
18137;BME280;9194;42.632;23.298;2022-10-16T20:03:03;93714.50;;;9.34;97.33
18137;BME280;9194;42.632;23.298;2022-10-16T20:08:05;93711.28;;;9.32;97.30
18137;BME280;9194;42.632;23.298;2022-10-16T20:13:07;93714.63;;;9.26;98.83
18137;BME280;9194;42.632;23.298;2022-10-16T20:18:08;93713.84;;;9.26;98.75
18137;BME280;9194;42.632;23.298;2022-10-16T20:23:10;93718.84;;;9.27;98.90
18137;BME280;9194;42.632;23.298;2022-10-16T20:28:15;93722.06;;;9.29;99.56
18137;BME280;9194;42.632;23.298;2022-10-16T20:33:17;93729.84;;;9.29;99.30
18137;BME280;9194;42.632;23.298;2022-10-16T20:38:18;93736.03;;;9.28;100.00
18137;BME280;9194;42.632;23.298;2022-10-16T20:43:19;93734.81;;;9.24;100.00
18137;BME280;9194;42.632;23.298;2022-10-16T20:48:20;93738.47;;;9.30;100.00
18137;BME280;9194;42.632;23.298;2022-10-16T20:53:22;93727.25;;;9.29;100.00
18137;BME280;9194;42.632;23.298;2022-10-16T20:58:24;93732.81;;;9.26;100.00
18137;BME280;9194;42.632;23.298;2022-10-16T21:03:25;93724.78;;;9.21;100.00
18137;BME280;9194;42.632;23.298;2022-10-16T21:08:26;93724.78;;;9.21;100.00
18137;BME280;9194;42.632;23.298;2022-10-16T21:13:27;93730.91;;;9.14;100.00
18137;BME280;9194;42.632;23.298;2022-10-16T21:18:28;93727.88;;;9.10;100.00
18137;BME280;9194;42.632;23.298;2022-10-16T21:23:31;93732.63;;;9.06;100.00
18137;BME280;9194;42.632;23.298;2022-10-16T21:28:32;93741.66;;;9.11;100.00
18137;BME280;9194;42.632;23.298;2022-10-16T21:33:33;93740.50;;;9.13;100.00
18137;BME280;9194;42.632;23.298;2022-10-16T21:38:35;93736.47;;;9.11;100.00
18137;BME280;9194;42.632;23.298;2022-10-16T21:43:36;93738.00;;;9.05;100.00
18137;BME280;9194;42.632;23.298;2022-10-16T21:48:37;93751.09;;;8.97;100.00
18137;BME280;9194;42.632;23.298;2022-10-16T21:53:39;93757.41;;;8.88;100.00
18137;BME280;9194;42.632;23.298;2022-10-16T21:58:41;93760.53;;;8.83;100.00
18137;BME280;9194;42.632;23.298;2022-10-16T22:03:44;93767.63;;;8.75;100.00
18137;BME280;9194;42.632;23.298;2022-10-16T22:08:47;93776.13;;;8.69;100.00
18137;BME280;9194;42.632;23.298;2022-10-16T22:13:50;93782.03;;;8.62;100.00
18137;BME280;9194;42.632;23.298;2022-10-16T22:18:56;93781.59;;;8.59;100.00
18137;BME280;9194;42.632;23.298;2022-10-16T22:23:58;93792.53;;;8.54;100.00
18137;BME280;9194;42.632;23.298;2022-10-16T22:29:00;93802.28;;;8.52;100.00
18137;BME280;9194;42.632;23.298;2022-10-16T22:34:02;93802.28;;;8.52;100.00
18137;BME280;9194;42.632;23.298;2022-10-16T22:39:04;93801.84;;;8.49;100.00
18137;BME280;9194;42.632;23.298;2022-10-16T22:44:10;93805.41;;;8.48;100.00
18137;BME280;9194;42.632;23.298;2022-10-16T22:49:12;93808.91;;;8.40;100.00
18137;BME280;9194;42.632;23.298;2022-10-16T22:54:13;93806.03;;;8.35;100.00
18137;BME280;9194;42.632;23.298;2022-10-16T22:59:14;93813.56;;;8.30;100.00
18137;BME280;9194;42.632;23.298;2022-10-16T23:04:19;93817.91;;;8.30;100.00
18137;BME280;9194;42.632;23.298;2022-10-16T23:09:20;93813.84;;;8.27;100.00
18137;BME280;9194;42.632;23.298;2022-10-16T23:14:22;93817.91;;;8.30;100.00
18137;BME280;9194;42.632;23.298;2022-10-16T23:19:23;93819.25;;;8.25;100.00
18137;BME280;9194;42.632;23.298;2022-10-16T23:24:24;93819.78;;;8.21;100.00
18137;BME280;9194;42.632;23.298;2022-10-16T23:29:26;93826.56;;;8.22;100.00
18137;BME280;9194;42.632;23.298;2022-10-16T23:34:27;93818.50;;;8.17;100.00
18137;BME280;9194;42.632;23.298;2022-10-16T23:39:28;93817.91;;;8.15;100.00
18137;BME280;9194;42.632;23.298;2022-10-16T23:44:30;93826.00;;;8.12;100.00
18137;BME280;9194;42.632;23.298;2022-10-16T23:49:31;93826.38;;;8.09;100.00
18137;BME280;9194;42.632;23.298;2022-10-16T23:54:32;93826.56;;;8.07;100.00
18137;BME280;9194;42.632;23.298;2022-10-16T23:59:33;93828.66;;;8.04;100.00
